FW2417 Weather Reports


Display with metric or nautical units.
time (UTC)temp
F
wind
direction
speed
MPH
gust
MPH
rain 1hr
in
rain 24hr
in
rain mn
in
humidity
%
barometer
mb
20240614180056 87 243 1.0 10.0 0.00 0.00 0.00 36 1014.1
20240614174609 88 246 4.0 11.0 0.00 0.00 0.00 34 1013.9
20240614173003 89 156 2.0 11.0 0.00 0.00 0.00 32 1014.1
20240614171530 91 249 2.0 14.0 0.00 0.00 0.00 32 1013.9
20240614170053 92 289 2.0 11.0 0.00 0.00 0.00 31 1013.9
20240614164559 94 205 1.0 9.0 0.00 0.00 0.00 29 1013.6
20240614163053 93 260 4.0 12.0 0.00 0.00 0.00 26 1013.7
20240614161612 93 246 2.0 11.0 0.00 0.00 0.00 25 1013.7
20240614160015 93 214 1.0 5.0 0.00 0.00 0.00 26 1014.0
20240614154546 93 253 2.0 6.0 0.00 0.00 0.00 27 1014.1
20240614153100 93 238 1.0 10.0 0.00 0.00 0.00 27 1014.2
20240614151616 93 287 1.0 8.0 0.00 0.00 0.00 27 1014.2
20240614150025 93 32 2.0 8.0 0.00 0.00 0.00 27 1014.3
20240614144543 93 215 2.0 9.0 0.00 0.00 0.00 27 1014.4
20240614143052 92 243 4.0 11.0 0.00 0.00 0.00 28 1014.5
20240614141607 92 140 3.0 9.0 0.00 0.00 0.00 28 1014.6
20240614140010 92 221 0.0 9.0 0.00 0.00 0.00 27 1014.8
20240614134520 93 219 2.0 6.0 0.00 0.00 0.00 26 1014.9
20240614133045 92 238 0.0 7.0 0.00 0.00 0.00 26 1015.1
20240614131604 92 102 0.0 6.0 0.00 0.00 0.00 27 1015.1
20240614130139 91 155 3.0 8.0 0.00 0.00 0.00 27 1015.4
20240614124510 91 330 3.0 7.0 0.00 0.00 0.00 28 1015.6
20240614123036 91 179 0.0 4.0 0.00 0.00 0.00 28 1015.7
20240614121551 90 25 1.0 6.0 0.00 0.00 0.00 30 1015.8
20240614120127 90 240 0.0 3.0 0.00 0.00 0.00 32 1016.1
20240614114503 89 236 0.0 3.0 0.00 0.00 0.00 31 1016.2
20240614113018 88 130 0.0 2.0 0.00 0.00 0.00 33 1016.3
20240614111541 87 331 0.0 2.0 0.00 0.00 0.00 33 1016.4
20240614110103 87 218 0.0 3.0 0.00 0.00 0.00 35 1016.5
20240614104617 86 219 0.0 4.0 0.00 0.00 0.00 36 1016.6
20240614103010 86 133 0.0 2.0 0.00 0.00 0.00 37 1016.6
20240614101535 85 232 0.0 1.0 0.00 0.00 0.00 38 1016.7
20240614100052 84 258 0.0 1.0 0.00 0.00 0.00 39 1016.7
20240614094610 83 285 0.0 2.0 0.00 0.00 0.00 41 1016.8
20240614093003 82 147 0.0 3.0 0.00 0.00 0.00 41 1016.8
20240614091535 82 105 0.0 1.0 0.00 0.00 0.00 42 1016.8
20240614090044 79 6 0.0 3.0 0.00 0.00 0.00 45 1016.8
20240614084555 80 90 0.0 1.0 0.00 0.00 0.00 44 1016.9
20240614083108 77 97 0.0 1.0 0.00 0.00 0.00 46 1016.9
20240614081507 76 115 0.0 1.0 0.00 0.00 0.00 50 1016.9
20240614080031 76 114 0.0 1.0 0.00 0.00 0.00 51 1016.9
20240614074545 75 64 0.0 2.0 0.00 0.00 0.00 51 1016.9
20240614073059 74 70 0.0 1.0 0.00 0.00 0.00 55 1016.8
20240614071611 73 107 0.0 1.0 0.00 0.00 0.00 59 1016.9
20240614070013 71 133 0.0 1.0 0.00 0.00 0.00 60 1016.9
20240614064531 70 132 0.0 1.0 0.00 0.00 0.00 62 1016.9
20240614063057 68 132 0.0 1.0 0.00 0.00 0.00 65 1016.7
20240614061603 68 130 0.0 3.0 0.00 0.00 0.00 66 1016.6
20240614060003 67 120 1.0 4.0 0.00 0.00 0.00 68 1016.5
20240614054517 66 139 0.0 3.0 0.00 0.00 0.00 68 1016.4
20240614053042 67 91 0.0 1.0 0.00 0.00 0.00 69 1016.4
20240614051555 66 92 0.0 1.0 0.00 0.00 0.00 70 1016.3
20240614050109 66 39 0.0 1.0 0.00 0.00 0.00 71 1016.3
20240614044519 65 13 0.0 1.0 0.00 0.00 0.00 71 1016.3
20240614043035 65 13 0.0 1.0 0.00 0.00 0.00 72 1016.2
20240614041602 65 113 0.0 1.0 0.00 0.00 0.00 71 1016.3
20240614040108 65 205 0.0 1.0 0.00 0.00 0.00 71 1016.2
20240614034518 66 205 0.0 1.0 0.00 0.00 0.00 70 1016.3
20240614033022 66 205 0.0 0.0 0.00 0.00 0.00 70 1016.3
20240614031556 67 205 0.0 0.0 0.00 0.00 0.00 69 1016.3
20240614030100 67 205 0.0 1.0 0.00 0.00 0.00 67 1016.4
20240614024503 69 205 0.0 0.0 0.00 0.00 0.00 64 1016.3
20240614023013 71 205 0.0 1.0 0.00 0.00 0.00 59 1016.5
20240614021540 71 205 0.0 2.0 0.00 0.00 0.00 60 1016.5
20240614020053 71 224 0.0 3.0 0.00 0.00 0.00 61 1016.7
20240614014608 71 210 1.0 4.0 0.00 0.00 0.00 63 1016.7
20240614013026 71 210 2.0 5.0 0.00 0.00 0.00 63 1016.7
20240614011535 71 174 2.0 7.0 0.00 0.00 0.00 62 1016.9
20240614010047 71 224 2.0 7.0 0.00 0.00 0.00 60 1017.1
20240614004606 71 205 2.0 8.0 0.00 0.00 0.00 60 1017.1
20240614003000 71 211 3.0 6.0 0.00 0.00 0.00 60 1017.3
20240614001524 72 229 3.0 8.0 0.00 0.00 0.00 59 1017.3
20240614000040 72 210 3.0 7.0 0.00 0.00 0.00 59 1017.4
20240613234554 72 226 3.0 9.0 0.00 0.00 0.00 59 1017.7
20240613233109 73 231 2.0 8.0 0.00 0.00 0.00 59 1017.9
20240613231507 74 226 3.0 6.0 0.00 0.00 0.00 57 1018.0
20240613230035 74 254 1.0 6.0 0.00 0.00 0.00 54 1017.9
20240613224547 75 207 1.0 5.0 0.00 0.00 0.00 51 1018.1
20240613223102 76 225 2.0 7.0 0.00 0.00 0.00 50 1018.0
20240613221614 76 229 3.0 7.0 0.00 0.00 0.00 48 1018.0
20240613220032 77 236 1.0 7.0 0.00 0.00 0.00 48 1018.1
20240613214540 78 226 1.0 5.0 0.00 0.00 0.00 47 1018.0
20240613213105 78 245 3.0 6.0 0.00 0.00 0.00 47 1017.8
20240613211608 79 246 2.0 6.0 0.00 0.00 0.00 47 1017.8
20240613210008 80 205 1.0 7.0 0.00 0.00 0.00 45 1017.7
20240613204533 81 224 1.0 7.0 0.00 0.00 0.00 44 1017.6
20240613203048 82 249 3.0 6.0 0.00 0.00 0.00 37 1017.3
20240613201606 83 236 1.0 6.0 0.00 0.00 0.00 37 1017.1
20240613200000 84 215 1.0 4.0 0.00 0.00 0.00 37 1016.9
20240613194541 86 249 0.0 2.0 0.00 0.00 0.00 35 1016.8
20240613193041 87 295 0.0 1.0 0.00 0.00 0.00 33 1016.8
20240613191552 88 356 0.0 3.0 0.00 0.00 0.00 32 1016.7
20240613190105 89 7 0.0 4.0 0.00 0.00 0.00 31 1016.7
20240613184512 90 343 0.0 3.0 0.00 0.00 0.00 31 1016.5
20240613183031 90 340 0.0 4.0 0.00 0.00 0.00 33 1016.5
20240613181557 90 360 2.0 5.0 0.00 0.00 0.00 31 1016.4